createdAt,value
2018-04-28T00:00:12.075Z,8.50
2018-04-28T00:02:39.865Z,8.57
2018-04-28T00:05:07.532Z,6.57
2018-04-28T00:07:36.083Z,5.93
2018-04-28T00:10:03.786Z,6.67
2018-04-28T00:12:32.203Z,6.67
2018-04-28T00:14:59.853Z,8.15
2018-04-28T00:17:32.568Z,6.87
2018-04-28T00:20:00.366Z,5.43
2018-04-28T00:22:38.777Z,6.10
2018-04-28T00:25:15.525Z,12.57
2018-04-28T00:27:53.120Z,6.87
2018-04-28T00:33:28.320Z,8.93
2018-04-28T00:36:13.452Z,6.50
2018-04-28T00:41:36.231Z,6.73
2018-04-28T00:44:11.050Z,6.03
2018-04-28T00:46:38.734Z,5.20
2018-04-28T00:49:23.009Z,6.23
2018-04-28T00:51:52.384Z,6.40
2018-04-28T00:54:26.334Z,3.93
2018-04-28T00:59:54.304Z,6.10
2018-04-28T01:02:24.903Z,3.50
2018-04-28T01:04:52.667Z,4.73
2018-04-28T01:07:22.809Z,5.60
2018-04-28T01:10:10.618Z,6.20
2018-04-28T01:12:38.925Z,6.40
2018-04-28T01:15:14.367Z,5.03
2018-04-28T01:17:46.627Z,4.97
2018-04-28T01:20:22.876Z,4.23
2018-04-28T01:22:50.577Z,6.33
2018-04-28T01:25:20.950Z,4.00
2018-04-28T01:27:51.565Z,6.70
2018-04-28T01:30:34.127Z,5.50
2018-04-28T01:35:57.004Z,6.60
2018-04-28T01:38:25.564Z,8.00
2018-04-28T01:40:54.043Z,5.90
2018-04-28T01:43:26.520Z,4.77
2018-04-28T01:46:20.942Z,6.43
2018-04-28T01:48:54.216Z,3.63
2018-04-28T01:51:27.500Z,6.33
2018-04-28T01:56:55.263Z,4.63
2018-04-28T01:59:27.962Z,5.20
2018-04-28T02:02:08.640Z,5.23
2018-04-28T02:04:38.851Z,2.50
2018-04-28T02:07:07.420Z,3.87
2018-04-28T02:09:36.972Z,4.40
2018-04-28T02:12:22.734Z,4.93
2018-04-28T02:14:52.200Z,5.00
2018-04-28T02:17:20.821Z,3.80
2018-04-28T02:23:03.757Z,5.73
2018-04-28T02:25:33.196Z,3.60
2018-04-28T02:31:01.363Z,5.83
2018-04-28T02:33:30.501Z,4.47
2018-04-28T02:35:59.899Z,4.00
2018-04-28T02:38:42.547Z,4.40
2018-04-28T02:41:18.109Z,5.40
2018-04-28T02:46:51.703Z,4.93
2018-04-28T02:49:25.072Z,4.43
2018-04-28T02:55:08.315Z,4.10
2018-04-28T03:00:57.204Z,4.67
2018-04-28T03:03:42.646Z,4.70
2018-04-28T03:06:14.836Z,4.47
2018-04-28T03:08:45.957Z,5.70
2018-04-28T03:11:16.501Z,4.90
2018-04-28T03:13:45.719Z,3.87
2018-04-28T03:16:19.417Z,6.40
2018-04-28T03:18:47.205Z,4.50
2018-04-28T03:21:15.649Z,6.17
2018-04-28T03:23:44.326Z,5.75
2018-04-28T03:29:07.326Z,6.27
2018-04-28T03:31:35.905Z,5.53
2018-04-28T03:34:27.429Z,6.37
2018-04-28T03:40:18.084Z,6.20
2018-04-28T03:42:52.365Z,4.13
2018-04-28T03:45:25.940Z,5.03
2018-04-28T03:50:51.403Z,4.60
2018-04-28T03:53:23.983Z,4.90
2018-04-28T03:56:01.649Z,5.07
2018-04-28T03:58:41.206Z,5.40
2018-04-28T04:01:20.724Z,5.17
2018-04-28T04:04:00.332Z,6.10
2018-04-28T04:06:32.614Z,5.20
2018-04-28T04:09:16.280Z,4.30
2018-04-28T04:11:52.032Z,3.87
2018-04-28T04:14:29.455Z,6.47
2018-04-28T04:17:02.917Z,3.97
2018-04-28T04:22:57.555Z,4.80
2018-04-28T04:25:29.910Z,4.83
2018-04-28T04:27:57.673Z,5.20
2018-04-28T04:30:30.955Z,4.77
2018-04-28T04:33:05.228Z,4.63
2018-04-28T04:35:45.591Z,4.77
2018-04-28T04:38:18.047Z,5.07
2018-04-28T04:40:59.549Z,5.10
2018-04-28T04:43:37.642Z,5.30
2018-04-28T04:49:23.097Z,3.93
2018-04-28T04:54:56.981Z,4.90
2018-04-28T05:00:39.990Z,4.50
2018-04-28T05:03:26.267Z,4.33
2018-04-28T05:06:05.670Z,4.77
2018-04-28T05:08:49.782Z,5.07
2018-04-28T05:11:39.360Z,4.27
2018-04-28T05:17:26.109Z,5.47
2018-04-28T05:23:00.852Z,5.93
2018-04-28T05:25:40.673Z,6.63
2018-04-28T05:28:27.209Z,4.77
2018-04-28T05:31:06.722Z,8.23
2018-04-28T05:33:41.208Z,4.47
2018-04-28T05:36:20.884Z,6.17
2018-04-28T05:41:58.229Z,5.20
2018-04-28T05:47:32.277Z,3.80
2018-04-28T05:50:13.013Z,9.03
2018-04-28T05:52:52.451Z,4.57
2018-04-28T05:55:20.199Z,5.50
2018-04-28T05:57:59.837Z,4.30
2018-04-28T06:00:33.137Z,6.23
2018-04-28T06:06:26.354Z,6.73
2018-04-28T06:09:00.831Z,6.43
2018-04-28T06:11:35.263Z,3.93
2018-04-28T06:14:15.003Z,4.70
2018-04-28T06:16:48.613Z,4.03
2018-04-28T06:22:19.163Z,5.27
2018-04-28T06:24:46.832Z,4.50
2018-04-28T06:27:14.456Z,5.43
2018-04-28T06:29:42.079Z,4.27
2018-04-28T06:32:09.711Z,5.47
2018-04-28T06:34:37.325Z,3.97
2018-04-28T06:37:05.853Z,3.63
2018-04-28T06:39:33.486Z,3.90
2018-04-28T06:42:01.105Z,4.13
2018-04-28T06:44:28.871Z,5.47
2018-04-28T06:46:56.632Z,4.27
2018-04-28T06:49:24.293Z,5.13
2018-04-28T06:51:53.497Z,3.00
2018-04-28T06:54:21.272Z,5.55
2018-04-28T06:56:49.720Z,3.73
2018-04-28T06:59:17.346Z,4.60
2018-04-28T07:01:45.035Z,7.18
2018-04-28T07:04:12.907Z,5.40
2018-04-28T07:06:40.607Z,6.27
2018-04-28T07:09:08.979Z,4.93
2018-04-28T07:11:37.727Z,3.95
2018-04-28T07:14:06.520Z,5.53
2018-04-28T07:16:34.313Z,5.17
2018-04-28T07:19:01.997Z,4.70
2018-04-28T07:21:30.532Z,5.17
2018-04-28T07:23:58.196Z,4.37
2018-04-28T07:26:25.890Z,4.27
2018-04-28T07:28:53.880Z,3.33
2018-04-28T07:31:22.410Z,4.03
2018-04-28T07:33:50.175Z,5.30
2018-04-28T07:36:17.885Z,5.63
2018-04-28T07:38:47.649Z,3.90
2018-04-28T07:41:15.331Z,3.30
2018-04-28T07:43:42.977Z,5.03
2018-04-28T07:46:10.741Z,5.17
2018-04-28T07:48:38.355Z,3.40
2018-04-28T07:51:06.827Z,4.70
2018-04-28T07:53:35.240Z,4.73
2018-04-28T07:56:02.925Z,5.33
2018-04-28T07:58:30.773Z,6.47
2018-04-28T08:00:58.479Z,8.73
2018-04-28T08:03:26.160Z,6.90
2018-04-28T08:05:54.704Z,3.47
2018-04-28T08:11:24.886Z,3.33
2018-04-28T08:13:53.428Z,5.87
2018-04-28T08:16:21.079Z,4.20
2018-04-28T08:18:48.857Z,3.30
2018-04-28T08:21:17.470Z,4.23
2018-04-28T08:23:45.242Z,4.20
2018-04-28T08:26:13.793Z,3.47
2018-04-28T08:28:41.433Z,3.77
2018-04-28T08:31:09.181Z,3.50
2018-04-28T08:33:36.888Z,4.03
2018-04-28T08:36:04.745Z,6.47
2018-04-28T08:38:32.365Z,5.17
2018-04-28T08:41:00.992Z,5.40
2018-04-28T08:43:29.535Z,4.43
2018-04-28T08:45:57.143Z,4.73
2018-04-28T08:48:25.100Z,6.17
2018-04-28T08:50:52.864Z,3.70
2018-04-28T08:53:20.488Z,3.70
2018-04-28T08:55:48.937Z,3.67
2018-04-28T08:58:16.671Z,5.40
2018-04-28T09:00:56.313Z,2.87
2018-04-28T09:03:23.956Z,8.67
2018-04-28T09:05:51.844Z,3.03
2018-04-28T09:08:19.609Z,4.50
2018-04-28T09:10:47.265Z,3.60
2018-04-28T09:13:15.138Z,3.50
2018-04-28T09:15:42.797Z,3.40
2018-04-28T09:18:10.564Z,4.07
2018-04-28T09:20:38.435Z,3.40
2018-04-28T09:23:06.198Z,3.67
2018-04-28T09:25:34.065Z,4.83
2018-04-28T09:28:01.791Z,2.67
2018-04-28T09:30:29.527Z,3.93
2018-04-28T09:32:57.436Z,3.23
2018-04-28T09:35:25.063Z,4.40
2018-04-28T09:37:53.536Z,3.43
2018-04-28T09:40:21.198Z,5.30
2018-04-28T09:48:10.010Z,3.27
2018-04-28T09:50:38.406Z,4.20
2018-04-28T09:53:06.127Z,3.60
2018-04-28T09:55:33.988Z,4.87
2018-04-28T09:58:05.543Z,3.07
2018-04-28T10:00:35.233Z,3.17
2018-04-28T10:03:05.716Z,3.05
2018-04-28T10:05:33.399Z,5.20
2018-04-28T10:08:01.942Z,9.30
2018-04-28T10:10:29.657Z,4.90
2018-04-28T10:12:58.202Z,3.73
2018-04-28T10:15:25.864Z,3.43
2018-04-28T10:17:53.488Z,2.87
2018-04-28T10:20:21.194Z,4.37
2018-04-28T10:22:48.925Z,2.93
2018-04-28T10:25:16.535Z,2.43
2018-04-28T10:27:44.953Z,2.67
2018-04-28T10:30:12.730Z,2.70
2018-04-28T10:32:40.359Z,3.37
2018-04-28T10:35:08.158Z,3.20
2018-04-28T10:37:35.772Z,2.93
2018-04-28T10:40:04.302Z,5.33
2018-04-28T10:42:31.983Z,2.67
2018-04-28T10:44:59.613Z,2.40
2018-04-28T10:47:27.313Z,4.07
2018-04-28T10:49:55.059Z,3.43
2018-04-28T10:52:22.823Z,2.83
2018-04-28T10:54:50.437Z,4.13
2018-04-28T10:57:18.949Z,3.45
2018-04-28T10:59:46.556Z,5.13
2018-04-28T11:02:14.227Z,2.47
2018-04-28T11:04:43.290Z,2.75
2018-04-28T11:07:11.995Z,2.83
2018-04-28T11:09:39.759Z,2.83
2018-04-28T11:12:08.003Z,2.33
2018-04-28T11:14:37.305Z,2.58
2018-04-28T11:17:05.381Z,4.30
2018-04-28T11:19:33.083Z,2.40
2018-04-28T11:22:01.107Z,3.70
2018-04-28T11:24:28.870Z,3.10
2018-04-28T11:26:56.777Z,2.93
2018-04-28T11:29:24.616Z,3.67
2018-04-28T11:31:52.313Z,2.07
2018-04-28T11:34:20.073Z,3.83
2018-04-28T11:36:47.808Z,3.37
2018-04-28T11:39:15.435Z,4.27
2018-04-28T11:41:43.156Z,3.53
2018-04-28T11:44:12.305Z,3.40
2018-04-28T11:46:40.004Z,5.23
2018-04-28T11:49:07.645Z,4.63
2018-04-28T11:51:35.319Z,5.20
2018-04-28T11:54:03.186Z,3.95
2018-04-28T11:56:30.877Z,3.87
2018-04-28T11:58:58.680Z,6.93
2018-04-28T12:01:27.790Z,7.03
2018-04-28T12:03:55.497Z,4.77
2018-04-28T12:06:23.239Z,4.63
2018-04-28T12:08:51.107Z,2.50
2018-04-28T12:11:18.865Z,4.03
2018-04-28T12:13:46.510Z,3.40
2018-04-28T12:16:14.256Z,6.93
2018-04-28T12:18:42.880Z,2.30
2018-04-28T12:21:11.359Z,4.33
2018-04-28T12:23:39.229Z,3.97
2018-04-28T12:26:07.097Z,3.80
2018-04-28T12:28:34.712Z,7.10
2018-04-28T12:31:03.119Z,4.43
2018-04-28T12:33:30.781Z,3.78
2018-04-28T12:35:58.568Z,5.47
2018-04-28T12:38:27.090Z,2.67
2018-04-28T12:40:54.711Z,4.07
2018-04-28T12:43:22.474Z,5.03
2018-04-28T12:45:50.147Z,4.90
2018-04-28T12:48:17.940Z,8.70
2018-04-28T12:50:46.420Z,3.22
2018-04-28T12:53:14.909Z,3.50
2018-04-28T12:55:42.589Z,2.87
2018-04-28T12:58:10.642Z,3.27
2018-04-28T13:00:39.110Z,3.43
2018-04-28T13:03:07.666Z,3.33
2018-04-28T13:05:35.315Z,4.25
2018-04-28T13:08:02.975Z,3.97
2018-04-28T13:10:30.754Z,5.50
2018-04-28T13:12:58.450Z,3.03
2018-04-28T13:15:26.180Z,4.10
2018-04-28T13:17:53.836Z,3.70
2018-04-28T13:20:21.609Z,4.17
2018-04-28T13:22:49.480Z,5.73
2018-04-28T13:25:17.351Z,3.00
2018-04-28T13:27:45.025Z,2.00
2018-04-28T13:30:12.875Z,3.80
2018-04-28T13:32:41.744Z,3.40
2018-04-28T13:35:09.371Z,4.67
2018-04-28T13:37:37.788Z,4.43
2018-04-28T13:40:05.450Z,6.55
2018-04-28T13:42:33.144Z,6.33
2018-04-28T13:45:00.778Z,4.00
2018-04-28T13:47:28.469Z,4.10
2018-04-28T13:49:56.095Z,4.23
2018-04-28T13:52:23.760Z,4.80
2018-04-28T13:54:51.396Z,3.93
2018-04-28T13:57:19.921Z,4.17
2018-04-28T13:59:47.583Z,3.77
2018-04-28T14:02:15.243Z,3.97
2018-04-28T14:04:43.011Z,5.57
2018-04-28T14:07:10.625Z,4.63
2018-04-28T14:09:39.076Z,4.83
2018-04-28T14:12:06.854Z,6.80
2018-04-28T14:14:35.282Z,2.87
2018-04-28T14:17:02.940Z,6.30
2018-04-28T14:19:30.636Z,3.70
2018-04-28T14:21:58.301Z,5.40
2018-04-28T14:24:26.108Z,3.53
2018-04-28T14:29:21.284Z,3.27
2018-04-28T14:31:49.073Z,4.00
2018-04-28T14:34:16.901Z,5.20
2018-04-28T14:36:44.670Z,4.55
2018-04-28T14:39:12.461Z,5.37
2018-04-28T14:41:40.225Z,6.43
2018-04-28T14:44:07.839Z,3.53
2018-04-28T14:46:35.848Z,2.80
2018-04-28T14:49:03.697Z,4.37
2018-04-28T14:51:31.499Z,3.50
2018-04-28T14:53:59.989Z,4.57
2018-04-28T14:56:28.403Z,5.17
2018-04-28T14:58:56.027Z,4.37
2018-04-28T15:01:25.120Z,5.30
2018-04-28T15:03:52.791Z,3.83
2018-04-28T15:06:21.328Z,6.33
2018-04-28T15:08:48.932Z,4.83
2018-04-28T15:11:18.281Z,3.07
2018-04-28T15:13:46.056Z,2.87
2018-04-28T15:16:13.749Z,3.47
2018-04-28T15:18:43.019Z,4.07
2018-04-28T15:21:10.783Z,2.73
2018-04-28T15:23:38.553Z,3.40
2018-04-28T15:26:06.209Z,5.22
2018-04-28T15:28:33.971Z,4.97
2018-04-28T15:31:02.343Z,5.60
2018-04-28T15:33:29.960Z,7.60
2018-04-28T15:35:59.450Z,4.83
2018-04-28T15:38:27.112Z,5.70
2018-04-28T15:40:54.738Z,4.10
2018-04-28T15:43:22.510Z,4.30
2018-04-28T15:45:50.274Z,5.37
2018-04-28T15:48:18.090Z,3.92
2018-04-28T15:50:45.906Z,3.83
2018-04-28T15:53:13.775Z,5.07
2018-04-28T15:55:41.572Z,4.93
2018-04-28T15:58:09.337Z,5.37
2018-04-28T16:00:38.005Z,4.07
2018-04-28T16:03:06.473Z,6.60
2018-04-28T16:05:34.235Z,8.00
2018-04-28T16:08:01.941Z,6.00
2018-04-28T16:10:30.429Z,3.20
2018-04-28T16:12:58.864Z,4.85
2018-04-28T16:15:26.484Z,4.40
2018-04-28T16:17:54.888Z,7.33
2018-04-28T16:20:22.522Z,6.70
2018-04-28T16:22:51.051Z,4.87
2018-04-28T16:25:18.740Z,6.87
2018-04-28T16:27:46.506Z,4.53
2018-04-28T16:30:14.186Z,4.30
2018-04-28T16:32:42.612Z,4.90
2018-04-28T16:35:10.382Z,5.23
2018-04-28T16:37:38.069Z,5.67
2018-04-28T16:40:05.688Z,4.87
2018-04-28T16:42:33.392Z,5.50
2018-04-28T16:45:01.018Z,5.40
2018-04-28T16:47:28.700Z,4.83
2018-04-28T16:49:56.354Z,4.33
2018-04-28T16:52:24.016Z,5.23
2018-04-28T16:54:51.640Z,3.53
2018-04-28T16:57:20.192Z,7.47
2018-04-28T16:59:47.932Z,5.27
2018-04-28T17:02:15.794Z,4.60
2018-04-28T17:04:43.515Z,4.87
2018-04-28T17:07:11.964Z,3.47
2018-04-28T17:09:39.638Z,5.43
2018-04-28T17:12:07.397Z,9.90
2018-04-28T17:14:35.207Z,15.97
2018-04-28T17:17:02.950Z,6.63
2018-04-28T17:19:30.762Z,3.63
2018-04-28T17:21:58.400Z,5.60
2018-04-28T17:24:26.024Z,4.00
2018-04-28T17:26:53.811Z,4.97
2018-04-28T17:29:21.556Z,6.73
2018-04-28T17:31:50.106Z,5.13
2018-04-28T17:34:17.776Z,6.82
2018-04-28T17:36:45.379Z,6.50
2018-04-28T17:39:13.807Z,4.90
2018-04-28T17:41:41.565Z,4.50
2018-04-28T17:44:09.226Z,6.63
2018-04-28T17:46:36.863Z,7.03
2018-04-28T17:49:04.508Z,6.55
2018-04-28T17:51:33.034Z,5.07
2018-04-28T17:54:00.829Z,8.83
2018-04-28T17:56:28.564Z,7.12
2018-04-28T17:58:56.432Z,5.30
2018-04-28T18:01:24.196Z,4.93
2018-04-28T18:03:51.812Z,6.17
2018-04-28T18:06:20.240Z,6.47
2018-04-28T18:08:48.034Z,7.50
2018-04-28T18:11:15.678Z,4.00
2018-04-28T18:13:43.286Z,6.43
2018-04-28T18:16:11.808Z,6.47
2018-04-28T18:18:39.487Z,8.37
2018-04-28T18:21:07.269Z,5.15
2018-04-28T18:23:35.040Z,5.53
2018-04-28T18:26:02.700Z,9.53
2018-04-28T18:28:30.465Z,8.47
2018-04-28T18:30:58.094Z,6.37
2018-04-28T18:33:25.885Z,5.80
2018-04-28T18:35:53.737Z,7.47
2018-04-28T18:38:21.386Z,5.53
2018-04-28T18:40:49.116Z,8.13
2018-04-28T18:43:16.851Z,6.60
2018-04-28T18:45:45.324Z,7.53
2018-04-28T18:48:13.064Z,8.83
2018-04-28T18:50:40.711Z,7.37
2018-04-28T18:53:08.534Z,7.40
2018-04-28T18:55:36.934Z,6.90
2018-04-28T18:58:04.764Z,7.57
2018-04-28T19:00:33.219Z,12.37
2018-04-28T19:03:01.017Z,7.97
2018-04-28T19:05:29.569Z,6.10
2018-04-28T19:07:57.238Z,7.33
2018-04-28T19:10:25.025Z,9.40
2018-04-28T19:12:53.421Z,8.97
2018-04-28T19:15:21.842Z,11.10
2018-04-28T19:17:49.524Z,11.37
2018-04-28T19:20:18.125Z,6.93
2018-04-28T19:22:45.749Z,9.50
2018-04-28T19:25:13.446Z,9.33
2018-04-28T19:27:41.063Z,6.90
2018-04-28T19:30:08.675Z,6.63
2018-04-28T19:32:37.329Z,7.83
2018-04-28T19:35:05.008Z,22.20
2018-04-28T19:37:33.609Z,10.43
2018-04-28T19:40:01.444Z,7.70
2018-04-28T19:42:29.975Z,10.67
2018-04-28T19:44:58.388Z,9.23
2018-04-28T19:47:26.036Z,6.73
2018-04-28T19:49:53.761Z,7.03
2018-04-28T19:52:21.384Z,8.83
2018-04-28T19:54:49.358Z,9.20
2018-04-28T19:57:17.015Z,8.57
2018-04-28T19:59:44.680Z,8.10
2018-04-28T20:02:12.332Z,8.67
2018-04-28T20:04:40.115Z,6.30
2018-04-28T20:07:07.981Z,6.43
2018-04-28T20:09:35.627Z,8.67
2018-04-28T20:12:03.239Z,8.13
2018-04-28T20:14:30.980Z,8.43
2018-04-28T20:16:58.734Z,5.90
2018-04-28T20:19:26.498Z,9.43
2018-04-28T20:24:58.907Z,8.93
2018-04-28T20:27:26.528Z,9.00
2018-04-28T20:29:54.192Z,11.47
2018-04-28T20:32:21.864Z,11.40
2018-04-28T20:34:49.643Z,13.07
2018-04-28T20:37:17.294Z,12.87
2018-04-28T20:39:44.993Z,16.57
2018-04-28T20:42:12.614Z,10.23
2018-04-28T20:44:40.304Z,10.83
2018-04-28T20:47:07.979Z,11.57
2018-04-28T20:49:35.662Z,13.95
2018-04-28T20:52:03.352Z,14.20
2018-04-28T20:54:31.014Z,12.40
2018-04-28T20:56:58.813Z,13.38
2018-04-28T20:59:26.573Z,15.00
2018-04-28T21:01:54.244Z,12.60
2018-04-28T21:04:22.104Z,11.57
2018-04-28T21:06:50.772Z,12.53
2018-04-28T21:09:18.415Z,11.90
2018-04-28T21:11:46.077Z,10.48
2018-04-28T21:14:13.879Z,12.83
2018-04-28T21:16:41.667Z,12.23
2018-04-28T21:19:09.296Z,11.80
2018-04-28T21:21:36.930Z,11.20
2018-04-28T21:24:04.677Z,12.50
2018-04-28T21:26:33.158Z,12.03
2018-04-28T21:29:00.829Z,12.03
2018-04-28T21:31:29.376Z,11.87
2018-04-28T21:33:57.165Z,12.80
2018-04-28T21:36:25.709Z,13.33
2018-04-28T21:38:53.526Z,10.47
2018-04-28T21:41:21.995Z,10.23
2018-04-28T21:43:49.840Z,13.33
2018-04-28T21:46:17.740Z,13.97
2018-04-28T21:48:45.402Z,9.63
2018-04-28T21:51:13.934Z,9.80
2018-04-28T21:53:41.637Z,9.67
2018-04-28T21:56:10.072Z,11.57
2018-04-28T21:58:37.693Z,10.70
2018-04-28T22:01:06.105Z,11.60
2018-04-28T22:03:33.757Z,8.73
2018-04-28T22:06:01.461Z,9.40
2018-04-28T22:08:29.108Z,9.73
2018-04-28T22:10:56.833Z,9.07
2018-04-28T22:13:24.483Z,9.20
2018-04-28T22:15:53.015Z,13.00
2018-04-28T22:18:20.715Z,9.63
2018-04-28T22:20:49.221Z,8.88
2018-04-28T22:23:16.919Z,12.33
2018-04-28T22:25:44.570Z,10.60
2018-04-28T22:28:12.250Z,9.03
2018-04-28T22:30:39.909Z,11.00
2018-04-28T22:33:07.573Z,12.87
2018-04-28T22:35:35.387Z,10.97
2018-04-28T22:38:04.706Z,9.07
2018-04-28T22:40:32.506Z,9.37
2018-04-28T22:43:00.179Z,9.03
2018-04-28T22:45:28.036Z,9.38
2018-04-28T22:47:55.701Z,10.97
2018-04-28T22:50:23.324Z,11.47
2018-04-28T22:52:51.950Z,11.47
2018-04-28T22:55:19.642Z,8.43
2018-04-28T22:57:47.367Z,9.10
2018-04-28T23:00:14.984Z,8.40
2018-04-28T23:02:43.515Z,9.83
2018-04-28T23:05:11.179Z,8.07
2018-04-28T23:07:38.852Z,9.00
2018-04-28T23:10:06.737Z,10.43
2018-04-28T23:12:36.685Z,9.13
2018-04-28T23:15:06.479Z,8.93
2018-04-28T23:17:35.821Z,11.97
2018-04-28T23:20:03.827Z,10.70
2018-04-28T23:22:31.659Z,12.23
2018-04-28T23:24:59.291Z,9.13
2018-04-28T23:27:27.822Z,16.93
2018-04-28T23:29:55.444Z,8.47
2018-04-28T23:32:23.930Z,8.87
2018-04-28T23:34:51.665Z,10.27
2018-04-28T23:37:20.209Z,10.17
2018-04-28T23:39:47.836Z,10.47
2018-04-28T23:42:16.256Z,8.60
2018-04-28T23:44:43.908Z,10.10
2018-04-28T23:47:11.563Z,9.48
2018-04-28T23:49:39.171Z,8.93
2018-04-28T23:52:07.612Z,8.82
2018-04-28T23:54:35.314Z,9.77
2018-04-28T23:57:03.774Z,9.97
2018-04-28T23:59:31.459Z,9.53
